Lady Christine — WDJ4398 — position and weather

sailwx.info

Track history (hours):
 
Tides and Currents Weather Stations Pressure Air Temp Water Temp Dewpoint Dewpoint Depression Visibility Wind Speed Wind Dir Waves Ship Positions

Lady Christine

Owner: NGUYEN, CU M, LAFAYETTE, LA. More information available from US FCC via Universal Licensing System and Coast Guard Vessel Documentation Center.

Last reported at 2017-Oct-09 18:21 UTC. Time now 2017-Oct-17 22:34 UTC.
Position N 29°43' W 092°15'.
Warning: this ship's position is 8 days out of date.

Length 26 m.

Type: Fishing. MMSI: 367777320.

Date/timePositionNaut miles runAvg speedWind from/ knotsBaromVisibWave heightAir tempDewpointWater temp
2017-Oct-09 18:21N 29°43' W 092°15'2 6.9
2017-Oct-09 17:59N 29°45' W 092°13'4 8.0
2017-Oct-09 17:30N 29°47' W 092°09'0 0.8
2017-Oct-09 16:58N 29°47' W 092°09'0 0.0
2017-Oct-09 16:28N 29°47' W 092°09'0 0.0
2017-Oct-09 15:58N 29°47' W 092°09'0 0.0
2017-Oct-09 15:25N 29°47' W 092°09'0 0.0
2017-Oct-09 14:19N 29°47' W 092°09'0 0.0
2017-Oct-07 19:27N 29°47' W 092°09'0 0.0
2017-Oct-07 18:53N 29°47' W 092°09'0 0.0
2017-Oct-07 18:29N 29°47' W 092°09'0 0.0
2017-Oct-07 17:59N 29°47' W 092°09'0 0.0
2017-Oct-07 17:29N 29°47' W 092°09'1 2.6
2017-Oct-07 17:00N 29°46' W 092°10'4 7.4
2017-Oct-07 16:30N 29°44' W 092°14'  
2017-Oct-01 17:14N 29°43' W 092°15'2 7.8
2017-Oct-01 17:00N 29°45' W 092°13'4 7.7
2017-Oct-01 16:30N 29°47' W 092°10'1 1.4
2017-Oct-01 15:58N 29°47' W 092°09'0 0.0
2017-Oct-01 15:23N 29°47' W 092°09'0 0.0
2017-Sep-29 20:32N 29°47' W 092°09'0 0.0
2017-Sep-29 20:29N 29°47' W 092°09'0 0.0
2017-Sep-29 19:59N 29°47' W 092°09'0 0.0
2017-Sep-29 19:29N 29°47' W 092°09'0 0.0
2017-Sep-29 18:59N 29°47' W 092°09'0 0.0
2017-Sep-29 18:29N 29°47' W 092°09'  
Track history (hours):
 
Tides and Currents Weather Stations Pressure Air Temp Water Temp Dewpoint Dewpoint Depression Visibility Wind Speed Wind Dir Waves Ship Positions

Lady Christine

Owner: NGUYEN, CU M, LAFAYETTE, LA. More information available from US FCC via Universal Licensing System and Coast Guard Vessel Documentation Center.

Last reported at 2017-Oct-09 18:21 UTC. Time now 2017-Oct-17 22:34 UTC.
Position N 29°43' W 092°15'.
Warning: this ship's position is 8 days out of date.

Length 26 m.

Type: Fishing. MMSI: 367777320.

Date/timePositionNaut miles runAvg speedWind from/ knotsBaromVisibWave heightAir tempDewpointWater temp
2017-Oct-09 18:21N 29°43' W 092°15'2 6.9
2017-Oct-09 17:59N 29°45' W 092°13'4 8.0
2017-Oct-09 17:30N 29°47' W 092°09'0 0.8
2017-Oct-09 16:58N 29°47' W 092°09'0 0.0
2017-Oct-09 16:28N 29°47' W 092°09'0 0.0
2017-Oct-09 15:58N 29°47' W 092°09'0 0.0
2017-Oct-09 15:25N 29°47' W 092°09'0 0.0
2017-Oct-09 14:19N 29°47' W 092°09'0 0.0
2017-Oct-07 19:27N 29°47' W 092°09'0 0.0
2017-Oct-07 18:53N 29°47' W 092°09'0 0.0
2017-Oct-07 18:29N 29°47' W 092°09'0 0.0
2017-Oct-07 17:59N 29°47' W 092°09'0 0.0
2017-Oct-07 17:29N 29°47' W 092°09'1 2.6
2017-Oct-07 17:00N 29°46' W 092°10'4 7.4
2017-Oct-07 16:30N 29°44' W 092°14'  
2017-Oct-01 17:14N 29°43' W 092°15'2 7.8
2017-Oct-01 17:00N 29°45' W 092°13'4 7.7
2017-Oct-01 16:30N 29°47' W 092°10'1 1.4
2017-Oct-01 15:58N 29°47' W 092°09'0 0.0
2017-Oct-01 15:23N 29°47' W 092°09'0 0.0
2017-Sep-29 20:32N 29°47' W 092°09'0 0.0
2017-Sep-29 20:29N 29°47' W 092°09'0 0.0
2017-Sep-29 19:59N 29°47' W 092°09'0 0.0
2017-Sep-29 19:29N 29°47' W 092°09'0 0.0
2017-Sep-29 18:59N 29°47' W 092°09'0 0.0
2017-Sep-29 18:29N 29°47' W 092°09'  

Dump ship's entire track history